sensor_id;sensor_type;location;lat;lon;timestamp;P1;durP1;ratioP1;P2;durP2;ratioP2
21862;SDS011;11096;51.338;12.524;2022-11-15T00:02:05;22.25;;;11.50;;
21862;SDS011;11096;51.338;12.524;2022-11-15T00:04:30;23.80;;;10.48;;
21862;SDS011;11096;51.338;12.524;2022-11-15T00:06:55;20.08;;;9.98;;
21862;SDS011;11096;51.338;12.524;2022-11-15T00:09:21;23.58;;;10.80;;
21862;SDS011;11096;51.338;12.524;2022-11-15T00:11:46;20.77;;;9.95;;
21862;SDS011;11096;51.338;12.524;2022-11-15T00:14:12;20.90;;;10.18;;
21862;SDS011;11096;51.338;12.524;2022-11-15T00:16:37;22.70;;;11.38;;
21862;SDS011;11096;51.338;12.524;2022-11-15T00:19:02;20.00;;;9.65;;
21862;SDS011;11096;51.338;12.524;2022-11-15T00:21:28;24.85;;;10.48;;
21862;SDS011;11096;51.338;12.524;2022-11-15T00:23:53;21.27;;;9.35;;
21862;SDS011;11096;51.338;12.524;2022-11-15T00:26:18;21.67;;;10.57;;
21862;SDS011;11096;51.338;12.524;2022-11-15T00:28:44;19.65;;;10.23;;
21862;SDS011;11096;51.338;12.524;2022-11-15T00:31:11;21.15;;;10.32;;
21862;SDS011;11096;51.338;12.524;2022-11-15T00:33:38;23.63;;;11.30;;
21862;SDS011;11096;51.338;12.524;2022-11-15T00:36:04;25.05;;;11.30;;
21862;SDS011;11096;51.338;12.524;2022-11-15T00:38:37;23.83;;;11.10;;
21862;SDS011;11096;51.338;12.524;2022-11-15T00:41:05;24.83;;;11.48;;
21862;SDS011;11096;51.338;12.524;2022-11-15T00:43:31;21.42;;;10.27;;
21862;SDS011;11096;51.338;12.524;2022-11-15T00:45:57;22.27;;;11.20;;
21862;SDS011;11096;51.338;12.524;2022-11-15T00:48:23;23.58;;;10.02;;
21862;SDS011;11096;51.338;12.524;2022-11-15T00:50:48;27.17;;;10.40;;
21862;SDS011;11096;51.338;12.524;2022-11-15T00:53:15;21.98;;;10.02;;
21862;SDS011;11096;51.338;12.524;2022-11-15T00:55:40;23.65;;;10.40;;
21862;SDS011;11096;51.338;12.524;2022-11-15T00:58:06;24.58;;;10.23;;
21862;SDS011;11096;51.338;12.524;2022-11-15T01:00:31;23.02;;;9.90;;
21862;SDS011;11096;51.338;12.524;2022-11-15T01:02:57;23.75;;;10.05;;
21862;SDS011;11096;51.338;12.524;2022-11-15T01:05:22;23.63;;;9.70;;
21862;SDS011;11096;51.338;12.524;2022-11-15T01:07:51;18.65;;;9.35;;
21862;SDS011;11096;51.338;12.524;2022-11-15T01:10:20;19.33;;;8.65;;
21862;SDS011;11096;51.338;12.524;2022-11-15T01:12:46;18.67;;;9.35;;
21862;SDS011;11096;51.338;12.524;2022-11-15T01:15:11;17.20;;;8.80;;
21862;SDS011;11096;51.338;12.524;2022-11-15T01:17:37;16.48;;;9.05;;
21862;SDS011;11096;51.338;12.524;2022-11-15T01:20:02;21.15;;;8.95;;
21862;SDS011;11096;51.338;12.524;2022-11-15T01:22:28;20.90;;;9.05;;
21862;SDS011;11096;51.338;12.524;2022-11-15T01:24:53;16.70;;;7.88;;
21862;SDS011;11096;51.338;12.524;2022-11-15T01:27:19;19.23;;;7.95;;
21862;SDS011;11096;51.338;12.524;2022-11-15T01:29:44;18.58;;;8.75;;
21862;SDS011;11096;51.338;12.524;2022-11-15T01:32:09;19.02;;;8.63;;
21862;SDS011;11096;51.338;12.524;2022-11-15T01:34:35;19.52;;;8.45;;
21862;SDS011;11096;51.338;12.524;2022-11-15T01:37:00;18.05;;;8.88;;
21862;SDS011;11096;51.338;12.524;2022-11-15T01:39:26;17.67;;;7.95;;
21862;SDS011;11096;51.338;12.524;2022-11-15T01:41:52;15.05;;;7.60;;
21862;SDS011;11096;51.338;12.524;2022-11-15T01:46:59;16.88;;;8.43;;
21862;SDS011;11096;51.338;12.524;2022-11-15T01:49:26;13.73;;;6.93;;
21862;SDS011;11096;51.338;12.524;2022-11-15T01:51:55;17.33;;;8.02;;
21862;SDS011;11096;51.338;12.524;2022-11-15T01:54:21;14.20;;;7.35;;
21862;SDS011;11096;51.338;12.524;2022-11-15T01:56:50;14.52;;;7.35;;
21862;SDS011;11096;51.338;12.524;2022-11-15T01:59:21;16.73;;;7.75;;
21862;SDS011;11096;51.338;12.524;2022-11-15T02:01:47;15.38;;;7.18;;
21862;SDS011;11096;51.338;12.524;2022-11-15T02:04:13;14.55;;;6.45;;
21862;SDS011;11096;51.338;12.524;2022-11-15T02:06:42;19.48;;;7.00;;
21862;SDS011;11096;51.338;12.524;2022-11-15T02:09:09;13.23;;;7.13;;
21862;SDS011;11096;51.338;12.524;2022-11-15T02:11:35;12.20;;;6.72;;
21862;SDS011;11096;51.338;12.524;2022-11-15T02:14:01;15.00;;;7.35;;
21862;SDS011;11096;51.338;12.524;2022-11-15T02:18:59;14.60;;;7.55;;
21862;SDS011;11096;51.338;12.524;2022-11-15T02:32:52;13.57;;;6.80;;
21862;SDS011;11096;51.338;12.524;2022-11-15T02:41:53;12.32;;;6.22;;
21862;SDS011;11096;51.338;12.524;2022-11-15T02:44:12;10.68;;;6.10;;
21862;SDS011;11096;51.338;12.524;2022-11-15T02:46:48;15.20;;;6.38;;
21862;SDS011;11096;51.338;12.524;2022-11-15T02:49:35;11.85;;;6.38;;
21862;SDS011;11096;51.338;12.524;2022-11-15T02:52:02;12.43;;;6.75;;
21862;SDS011;11096;51.338;12.524;2022-11-15T02:54:29;12.40;;;6.75;;
21862;SDS011;11096;51.338;12.524;2022-11-15T02:57:14;11.18;;;6.72;;
21862;SDS011;11096;51.338;12.524;2022-11-15T03:07:30;12.30;;;6.38;;
21862;SDS011;11096;51.338;12.524;2022-11-15T03:10:05;13.25;;;6.55;;
21862;SDS011;11096;51.338;12.524;2022-11-15T03:12:44;12.48;;;6.15;;
21862;SDS011;11096;51.338;12.524;2022-11-15T03:15:32;10.85;;;5.47;;
21862;SDS011;11096;51.338;12.524;2022-11-15T03:18:22;14.70;;;6.00;;
21862;SDS011;11096;51.338;12.524;2022-11-15T03:20:55;11.48;;;5.97;;
21862;SDS011;11096;51.338;12.524;2022-11-15T03:23:22;12.75;;;6.32;;
21862;SDS011;11096;51.338;12.524;2022-11-15T03:25:51;11.02;;;5.72;;
21862;SDS011;11096;51.338;12.524;2022-11-15T03:28:20;8.95;;;5.65;;
21862;SDS011;11096;51.338;12.524;2022-11-15T03:30:49;13.13;;;6.05;;
21862;SDS011;11096;51.338;12.524;2022-11-15T03:33:16;11.85;;;6.18;;
21862;SDS011;11096;51.338;12.524;2022-11-15T03:35:44;10.65;;;5.72;;
21862;SDS011;11096;51.338;12.524;2022-11-15T03:38:24;9.65;;;5.47;;
21862;SDS011;11096;51.338;12.524;2022-11-15T03:40:54;9.35;;;5.25;;
21862;SDS011;11096;51.338;12.524;2022-11-15T03:43:37;11.05;;;5.13;;
21862;SDS011;11096;51.338;12.524;2022-11-15T03:46:13;10.18;;;5.53;;
21862;SDS011;11096;51.338;12.524;2022-11-15T03:48:42;8.77;;;4.80;;
21862;SDS011;11096;51.338;12.524;2022-11-15T03:51:13;9.25;;;5.55;;
21862;SDS011;11096;51.338;12.524;2022-11-15T03:53:40;8.80;;;5.03;;
21862;SDS011;11096;51.338;12.524;2022-11-15T03:56:06;9.82;;;5.13;;
21862;SDS011;11096;51.338;12.524;2022-11-15T03:58:31;9.35;;;4.80;;
21862;SDS011;11096;51.338;12.524;2022-11-15T04:00:57;10.57;;;5.32;;
21862;SDS011;11096;51.338;12.524;2022-11-15T04:03:24;10.48;;;4.88;;
21862;SDS011;11096;51.338;12.524;2022-11-15T04:05:50;8.57;;;4.80;;
21862;SDS011;11096;51.338;12.524;2022-11-15T04:08:15;9.20;;;5.00;;
21862;SDS011;11096;51.338;12.524;2022-11-15T04:10:40;9.55;;;4.65;;
21862;SDS011;11096;51.338;12.524;2022-11-15T04:13:06;12.00;;;4.82;;
21862;SDS011;11096;51.338;12.524;2022-11-15T04:15:31;8.88;;;4.88;;
21862;SDS011;11096;51.338;12.524;2022-11-15T04:17:57;11.23;;;4.85;;
21862;SDS011;11096;51.338;12.524;2022-11-15T04:20:27;8.60;;;5.38;;
21862;SDS011;11096;51.338;12.524;2022-11-15T04:23:19;12.27;;;4.82;;
21862;SDS011;11096;51.338;12.524;2022-11-15T04:26:15;10.70;;;4.70;;
21862;SDS011;11096;51.338;12.524;2022-11-15T04:28:42;7.70;;;5.00;;
21862;SDS011;11096;51.338;12.524;2022-11-15T04:31:37;9.15;;;5.03;;
21862;SDS011;11096;51.338;12.524;2022-11-15T04:34:02;8.30;;;4.72;;
21862;SDS011;11096;51.338;12.524;2022-11-15T04:36:27;9.65;;;5.28;;
21862;SDS011;11096;51.338;12.524;2022-11-15T04:39:11;10.25;;;5.18;;
21862;SDS011;11096;51.338;12.524;2022-11-15T04:41:37;8.18;;;4.95;;
21862;SDS011;11096;51.338;12.524;2022-11-15T04:44:02;10.95;;;5.35;;
21862;SDS011;11096;51.338;12.524;2022-11-15T04:46:28;8.80;;;4.95;;
21862;SDS011;11096;51.338;12.524;2022-11-15T04:48:53;8.70;;;4.55;;
21862;SDS011;11096;51.338;12.524;2022-11-15T04:51:19;9.30;;;4.97;;
21862;SDS011;11096;51.338;12.524;2022-11-15T04:53:45;8.30;;;5.07;;
21862;SDS011;11096;51.338;12.524;2022-11-15T04:56:10;9.40;;;5.10;;
21862;SDS011;11096;51.338;12.524;2022-11-15T04:58:36;8.95;;;4.70;;
21862;SDS011;11096;51.338;12.524;2022-11-15T05:01:12;8.52;;;4.32;;
21862;SDS011;11096;51.338;12.524;2022-11-15T05:03:42;7.10;;;4.35;;
21862;SDS011;11096;51.338;12.524;2022-11-15T05:06:26;7.93;;;4.80;;
21862;SDS011;11096;51.338;12.524;2022-11-15T05:08:52;7.95;;;4.65;;
21862;SDS011;11096;51.338;12.524;2022-11-15T05:11:17;7.57;;;4.82;;
21862;SDS011;11096;51.338;12.524;2022-11-15T05:13:43;6.70;;;4.15;;
21862;SDS011;11096;51.338;12.524;2022-11-15T05:16:08;7.82;;;4.40;;
21862;SDS011;11096;51.338;12.524;2022-11-15T05:18:33;7.45;;;4.38;;
21862;SDS011;11096;51.338;12.524;2022-11-15T05:21:03;9.73;;;4.53;;
21862;SDS011;11096;51.338;12.524;2022-11-15T05:23:32;7.22;;;4.45;;
21862;SDS011;11096;51.338;12.524;2022-11-15T05:26:01;7.18;;;4.45;;
21862;SDS011;11096;51.338;12.524;2022-11-15T05:28:27;7.53;;;4.43;;
21862;SDS011;11096;51.338;12.524;2022-11-15T05:30:52;9.18;;;4.25;;
21862;SDS011;11096;51.338;12.524;2022-11-15T05:33:18;7.97;;;4.32;;
21862;SDS011;11096;51.338;12.524;2022-11-15T05:35:48;7.05;;;4.05;;
21862;SDS011;11096;51.338;12.524;2022-11-15T05:38:20;7.10;;;3.95;;
21862;SDS011;11096;51.338;12.524;2022-11-15T05:40:45;7.40;;;4.45;;
21862;SDS011;11096;51.338;12.524;2022-11-15T05:43:11;9.52;;;5.28;;
21862;SDS011;11096;51.338;12.524;2022-11-15T05:45:36;10.43;;;5.10;;
21862;SDS011;11096;51.338;12.524;2022-11-15T05:48:04;10.40;;;4.82;;
21862;SDS011;11096;51.338;12.524;2022-11-15T05:50:32;9.65;;;5.50;;
21862;SDS011;11096;51.338;12.524;2022-11-15T05:52:59;10.13;;;5.13;;
21862;SDS011;11096;51.338;12.524;2022-11-15T05:55:26;11.25;;;5.00;;
21862;SDS011;11096;51.338;12.524;2022-11-15T05:57:52;9.25;;;5.43;;
21862;SDS011;11096;51.338;12.524;2022-11-15T06:00:17;8.00;;;4.88;;
21862;SDS011;11096;51.338;12.524;2022-11-15T06:02:43;10.40;;;4.90;;
21862;SDS011;11096;51.338;12.524;2022-11-15T06:05:08;10.23;;;4.97;;
21862;SDS011;11096;51.338;12.524;2022-11-15T06:07:34;10.05;;;4.57;;
21862;SDS011;11096;51.338;12.524;2022-11-15T06:09:59;8.40;;;5.05;;
21862;SDS011;11096;51.338;12.524;2022-11-15T06:12:24;10.93;;;5.20;;
21862;SDS011;11096;51.338;12.524;2022-11-15T06:14:50;11.40;;;4.97;;
21862;SDS011;11096;51.338;12.524;2022-11-15T06:17:15;10.40;;;5.88;;
21862;SDS011;11096;51.338;12.524;2022-11-15T06:19:41;11.88;;;5.07;;
21862;SDS011;11096;51.338;12.524;2022-11-15T06:22:06;7.82;;;5.15;;
21862;SDS011;11096;51.338;12.524;2022-11-15T06:24:31;8.80;;;5.07;;
21862;SDS011;11096;51.338;12.524;2022-11-15T06:26:57;8.30;;;4.22;;
21862;SDS011;11096;51.338;12.524;2022-11-15T06:29:22;8.57;;;4.95;;
21862;SDS011;11096;51.338;12.524;2022-11-15T06:31:48;11.07;;;4.95;;
21862;SDS011;11096;51.338;12.524;2022-11-15T06:34:13;9.82;;;5.00;;
21862;SDS011;11096;51.338;12.524;2022-11-15T06:36:39;9.05;;;4.93;;
21862;SDS011;11096;51.338;12.524;2022-11-15T06:39:04;8.50;;;5.00;;
21862;SDS011;11096;51.338;12.524;2022-11-15T06:41:30;8.88;;;5.15;;
21862;SDS011;11096;51.338;12.524;2022-11-15T06:43:56;12.10;;;4.78;;
21862;SDS011;11096;51.338;12.524;2022-11-15T06:46:22;9.65;;;4.93;;
21862;SDS011;11096;51.338;12.524;2022-11-15T06:48:49;11.30;;;4.80;;
21862;SDS011;11096;51.338;12.524;2022-11-15T06:51:16;8.27;;;4.47;;
21862;SDS011;11096;51.338;12.524;2022-11-15T06:53:41;6.43;;;4.55;;
21862;SDS011;11096;51.338;12.524;2022-11-15T06:56:07;7.53;;;3.97;;
21862;SDS011;11096;51.338;12.524;2022-11-15T06:58:32;8.13;;;4.72;;
21862;SDS011;11096;51.338;12.524;2022-11-15T07:01:00;9.88;;;4.80;;
21862;SDS011;11096;51.338;12.524;2022-11-15T07:03:26;8.15;;;4.47;;
21862;SDS011;11096;51.338;12.524;2022-11-15T07:05:55;8.30;;;4.40;;
21862;SDS011;11096;51.338;12.524;2022-11-15T07:08:22;8.80;;;4.13;;
21862;SDS011;11096;51.338;12.524;2022-11-15T07:10:48;10.15;;;4.60;;
21862;SDS011;11096;51.338;12.524;2022-11-15T07:13:14;9.68;;;4.53;;
21862;SDS011;11096;51.338;12.524;2022-11-15T07:15:39;7.18;;;4.18;;
21862;SDS011;11096;51.338;12.524;2022-11-15T07:18:04;9.52;;;4.82;;
21862;SDS011;11096;51.338;12.524;2022-11-15T07:20:30;8.98;;;3.83;;
21862;SDS011;11096;51.338;12.524;2022-11-15T07:23:02;9.30;;;4.63;;
21862;SDS011;11096;51.338;12.524;2022-11-15T07:25:29;7.50;;;4.43;;
21862;SDS011;11096;51.338;12.524;2022-11-15T07:27:55;6.82;;;4.07;;
21862;SDS011;11096;51.338;12.524;2022-11-15T07:30:21;7.55;;;4.07;;
21862;SDS011;11096;51.338;12.524;2022-11-15T07:32:47;7.68;;;4.28;;
21862;SDS011;11096;51.338;12.524;2022-11-15T07:35:12;7.47;;;4.30;;
21862;SDS011;11096;51.338;12.524;2022-11-15T07:37:38;7.35;;;4.65;;
21862;SDS011;11096;51.338;12.524;2022-11-15T07:40:03;9.75;;;4.80;;
21862;SDS011;11096;51.338;12.524;2022-11-15T07:42:31;5.05;;;3.35;;
21862;SDS011;11096;51.338;12.524;2022-11-15T07:45:15;6.53;;;4.07;;
21862;SDS011;11096;51.338;12.524;2022-11-15T07:47:40;8.43;;;4.38;;
21862;SDS011;11096;51.338;12.524;2022-11-15T07:50:05;7.25;;;4.05;;
21862;SDS011;11096;51.338;12.524;2022-11-15T07:52:31;7.63;;;3.80;;
21862;SDS011;11096;51.338;12.524;2022-11-15T07:54:56;8.10;;;4.22;;
21862;SDS011;11096;51.338;12.524;2022-11-15T07:57:22;6.10;;;4.05;;
21862;SDS011;11096;51.338;12.524;2022-11-15T07:59:47;6.43;;;4.03;;
21862;SDS011;11096;51.338;12.524;2022-11-15T08:02:12;8.15;;;4.70;;
21862;SDS011;11096;51.338;12.524;2022-11-15T08:04:38;7.47;;;4.40;;
21862;SDS011;11096;51.338;12.524;2022-11-15T08:07:03;7.45;;;4.18;;
21862;SDS011;11096;51.338;12.524;2022-11-15T08:09:29;9.07;;;3.90;;
21862;SDS011;11096;51.338;12.524;2022-11-15T08:11:54;9.35;;;4.32;;
21862;SDS011;11096;51.338;12.524;2022-11-15T08:14:19;8.27;;;4.65;;
21862;SDS011;11096;51.338;12.524;2022-11-15T08:16:47;10.55;;;4.13;;
21862;SDS011;11096;51.338;12.524;2022-11-15T08:19:12;7.85;;;3.83;;
21862;SDS011;11096;51.338;12.524;2022-11-15T08:21:37;7.20;;;4.22;;
21862;SDS011;11096;51.338;12.524;2022-11-15T08:24:03;6.85;;;3.90;;
21862;SDS011;11096;51.338;12.524;2022-11-15T08:26:28;7.38;;;4.05;;
21862;SDS011;11096;51.338;12.524;2022-11-15T08:28:55;6.93;;;4.00;;
21862;SDS011;11096;51.338;12.524;2022-11-15T08:31:20;6.15;;;3.97;;
21862;SDS011;11096;51.338;12.524;2022-11-15T08:33:46;8.65;;;3.97;;
21862;SDS011;11096;51.338;12.524;2022-11-15T08:36:12;6.20;;;3.70;;
21862;SDS011;11096;51.338;12.524;2022-11-15T08:38:39;6.60;;;4.25;;
21862;SDS011;11096;51.338;12.524;2022-11-15T08:41:05;6.85;;;3.45;;
21862;SDS011;11096;51.338;12.524;2022-11-15T08:43:31;6.70;;;4.13;;
21862;SDS011;11096;51.338;12.524;2022-11-15T08:45:57;8.48;;;4.18;;
21862;SDS011;11096;51.338;12.524;2022-11-15T08:48:23;5.93;;;4.00;;
21862;SDS011;11096;51.338;12.524;2022-11-15T08:50:48;7.63;;;3.47;;
21862;SDS011;11096;51.338;12.524;2022-11-15T08:53:14;7.55;;;3.95;;
21862;SDS011;11096;51.338;12.524;2022-11-15T08:55:40;7.35;;;3.60;;
21862;SDS011;11096;51.338;12.524;2022-11-15T08:58:06;6.55;;;4.10;;
21862;SDS011;11096;51.338;12.524;2022-11-15T09:00:32;6.32;;;3.58;;
21862;SDS011;11096;51.338;12.524;2022-11-15T09:02:58;4.78;;;3.60;;
21862;SDS011;11096;51.338;12.524;2022-11-15T09:05:24;6.95;;;3.90;;
21862;SDS011;11096;51.338;12.524;2022-11-15T09:07:53;9.13;;;4.15;;
21862;SDS011;11096;51.338;12.524;2022-11-15T09:10:19;6.90;;;3.70;;
21862;SDS011;11096;51.338;12.524;2022-11-15T09:12:45;4.80;;;3.63;;
21862;SDS011;11096;51.338;12.524;2022-11-15T09:15:13;6.72;;;3.63;;
21862;SDS011;11096;51.338;12.524;2022-11-15T09:17:40;5.55;;;3.53;;
21862;SDS011;11096;51.338;12.524;2022-11-15T09:20:06;6.72;;;4.00;;
21862;SDS011;11096;51.338;12.524;2022-11-15T09:22:32;5.47;;;3.47;;
21862;SDS011;11096;51.338;12.524;2022-11-15T09:24:57;5.25;;;3.55;;
21862;SDS011;11096;51.338;12.524;2022-11-15T09:27:26;7.43;;;4.30;;
21862;SDS011;11096;51.338;12.524;2022-11-15T09:29:52;5.03;;;3.75;;
21862;SDS011;11096;51.338;12.524;2022-11-15T09:32:18;4.50;;;3.28;;
21862;SDS011;11096;51.338;12.524;2022-11-15T09:34:43;5.15;;;3.47;;
21862;SDS011;11096;51.338;12.524;2022-11-15T09:37:08;6.32;;;3.47;;
21862;SDS011;11096;51.338;12.524;2022-11-15T09:39:34;5.13;;;3.35;;
21862;SDS011;11096;51.338;12.524;2022-11-15T09:49:59;5.80;;;3.08;;
21862;SDS011;11096;51.338;12.524;2022-11-15T09:52:27;6.57;;;3.45;;
21862;SDS011;11096;51.338;12.524;2022-11-15T09:54:52;5.97;;;3.25;;
21862;SDS011;11096;51.338;12.524;2022-11-15T09:57:24;3.75;;;2.75;;
21862;SDS011;11096;51.338;12.524;2022-11-15T10:03:14;6.00;;;2.88;;
21862;SDS011;11096;51.338;12.524;2022-11-15T10:05:20;4.25;;;2.75;;
21862;SDS011;11096;51.338;12.524;2022-11-15T10:10:47;3.28;;;2.58;;
21862;SDS011;11096;51.338;12.524;2022-11-15T10:13:22;3.30;;;2.65;;
21862;SDS011;11096;51.338;12.524;2022-11-15T10:15:50;4.28;;;3.20;;
21862;SDS011;11096;51.338;12.524;2022-11-15T10:18:30;4.28;;;2.40;;
21862;SDS011;11096;51.338;12.524;2022-11-15T10:21:17;6.97;;;3.30;;
21862;SDS011;11096;51.338;12.524;2022-11-15T10:23:45;4.50;;;2.90;;
21862;SDS011;11096;51.338;12.524;2022-11-15T10:26:12;3.55;;;2.72;;
21862;SDS011;11096;51.338;12.524;2022-11-15T10:28:41;4.28;;;2.53;;
21862;SDS011;11096;51.338;12.524;2022-11-15T10:31:20;4.30;;;2.42;;
21862;SDS011;11096;51.338;12.524;2022-11-15T10:33:53;7.40;;;3.08;;
21862;SDS011;11096;51.338;12.524;2022-11-15T10:36:35;6.22;;;2.85;;
21862;SDS011;11096;51.338;12.524;2022-11-15T10:39:00;3.92;;;2.60;;
21862;SDS011;11096;51.338;12.524;2022-11-15T10:46:32;5.20;;;2.70;;
21862;SDS011;11096;51.338;12.524;2022-11-15T10:51:48;4.22;;;2.90;;
21862;SDS011;11096;51.338;12.524;2022-11-15T10:54:36;5.28;;;2.83;;
21862;SDS011;11096;51.338;12.524;2022-11-15T10:57:26;8.02;;;2.60;;
21862;SDS011;11096;51.338;12.524;2022-11-15T10:59:55;4.35;;;2.53;;
21862;SDS011;11096;51.338;12.524;2022-11-15T11:02:27;3.20;;;2.03;;
21862;SDS011;11096;51.338;12.524;2022-11-15T11:05:02;3.10;;;2.25;;
21862;SDS011;11096;51.338;12.524;2022-11-15T11:07:55;5.38;;;2.75;;
21862;SDS011;11096;51.338;12.524;2022-11-15T11:10:23;2.60;;;2.38;;
21862;SDS011;11096;51.338;12.524;2022-11-15T11:12:48;5.97;;;2.40;;
21862;SDS011;11096;51.338;12.524;2022-11-15T11:15:15;4.35;;;2.30;;
21862;SDS011;11096;51.338;12.524;2022-11-15T11:31:14;3.05;;;2.15;;
21862;SDS011;11096;51.338;12.524;2022-11-15T11:33:44;3.03;;;2.35;;
21862;SDS011;11096;51.338;12.524;2022-11-15T11:36:49;3.88;;;2.03;;
21862;SDS011;11096;51.338;12.524;2022-11-15T11:47:47;3.15;;;1.95;;
21862;SDS011;11096;51.338;12.524;2022-11-15T11:50:19;3.88;;;2.30;;
21862;SDS011;11096;51.338;12.524;2022-11-15T11:55:36;5.97;;;1.70;;
21862;SDS011;11096;51.338;12.524;2022-11-15T12:00:55;3.88;;;2.25;;
21862;SDS011;11096;51.338;12.524;2022-11-15T12:03:38;2.97;;;2.10;;
21862;SDS011;11096;51.338;12.524;2022-11-15T12:06:21;4.75;;;2.35;;
21862;SDS011;11096;51.338;12.524;2022-11-15T12:11:29;3.80;;;2.03;;
21862;SDS011;11096;51.338;12.524;2022-11-15T12:17:10;4.30;;;2.03;;
21862;SDS011;11096;51.338;12.524;2022-11-15T12:19:36;3.33;;;2.00;;
21862;SDS011;11096;51.338;12.524;2022-11-15T12:22:04;5.20;;;2.08;;
21862;SDS011;11096;51.338;12.524;2022-11-15T12:24:39;4.25;;;2.10;;
21862;SDS011;11096;51.338;12.524;2022-11-15T12:27:15;5.13;;;2.35;;
21862;SDS011;11096;51.338;12.524;2022-11-15T12:29:49;4.60;;;2.00;;
21862;SDS011;11096;51.338;12.524;2022-11-15T12:34:58;2.85;;;1.60;;
21862;SDS011;11096;51.338;12.524;2022-11-15T12:37:46;3.20;;;2.10;;
21862;SDS011;11096;51.338;12.524;2022-11-15T12:45:33;4.28;;;1.92;;
21862;SDS011;11096;51.338;12.524;2022-11-15T12:58:43;3.10;;;2.10;;
21862;SDS011;11096;51.338;12.524;2022-11-15T13:06:34;1.92;;;1.67;;
21862;SDS011;11096;51.338;12.524;2022-11-15T13:09:03;3.75;;;2.33;;
21862;SDS011;11096;51.338;12.524;2022-11-15T13:11:49;3.55;;;2.25;;
21862;SDS011;11096;51.338;12.524;2022-11-15T13:33:15;4.03;;;2.53;;
21862;SDS011;11096;51.338;12.524;2022-11-15T13:35:45;4.32;;;2.20;;
21862;SDS011;11096;51.338;12.524;2022-11-15T13:38:46;3.42;;;2.22;;
21862;SDS011;11096;51.338;12.524;2022-11-15T13:41:48;4.65;;;2.53;;
21862;SDS011;11096;51.338;12.524;2022-11-15T13:43:58;7.07;;;2.40;;
21862;SDS011;11096;51.338;12.524;2022-11-15T13:46:26;4.28;;;2.17;;
21862;SDS011;11096;51.338;12.524;2022-11-15T13:48:59;3.42;;;2.20;;
21862;SDS011;11096;51.338;12.524;2022-11-15T13:54:25;4.68;;;2.70;;
21862;SDS011;11096;51.338;12.524;2022-11-15T13:57:12;2.45;;;2.10;;
21862;SDS011;11096;51.338;12.524;2022-11-15T13:59:47;4.05;;;2.30;;
21862;SDS011;11096;51.338;12.524;2022-11-15T14:02:13;3.75;;;2.38;;
21862;SDS011;11096;51.338;12.524;2022-11-15T14:04:49;3.22;;;2.42;;
21862;SDS011;11096;51.338;12.524;2022-11-15T14:07:20;4.75;;;2.58;;
21862;SDS011;11096;51.338;12.524;2022-11-15T14:09:48;4.25;;;2.55;;
21862;SDS011;11096;51.338;12.524;2022-11-15T14:12:24;4.32;;;1.92;;
21862;SDS011;11096;51.338;12.524;2022-11-15T14:14:55;3.75;;;2.45;;
21862;SDS011;11096;51.338;12.524;2022-11-15T14:17:42;3.33;;;2.28;;
21862;SDS011;11096;51.338;12.524;2022-11-15T14:20:24;3.55;;;2.53;;
21862;SDS011;11096;51.338;12.524;2022-11-15T14:22:53;3.80;;;2.28;;
21862;SDS011;11096;51.338;12.524;2022-11-15T14:25:30;3.25;;;2.28;;
21862;SDS011;11096;51.338;12.524;2022-11-15T14:28:10;3.80;;;2.40;;
21862;SDS011;11096;51.338;12.524;2022-11-15T14:30:36;3.60;;;2.72;;
21862;SDS011;11096;51.338;12.524;2022-11-15T14:33:01;3.75;;;2.28;;
21862;SDS011;11096;51.338;12.524;2022-11-15T14:35:41;6.22;;;2.58;;
21862;SDS011;11096;51.338;12.524;2022-11-15T14:38:07;4.72;;;2.90;;
21862;SDS011;11096;51.338;12.524;2022-11-15T14:40:32;5.43;;;2.65;;
21862;SDS011;11096;51.338;12.524;2022-11-15T14:42:58;3.63;;;2.35;;
21862;SDS011;11096;51.338;12.524;2022-11-15T14:45:23;4.28;;;2.50;;
21862;SDS011;11096;51.338;12.524;2022-11-15T14:47:52;5.20;;;2.58;;
21862;SDS011;11096;51.338;12.524;2022-11-15T14:50:19;4.53;;;2.60;;
21862;SDS011;11096;51.338;12.524;2022-11-15T14:52:46;2.88;;;2.03;;
21862;SDS011;11096;51.338;12.524;2022-11-15T14:55:22;3.90;;;2.20;;
21862;SDS011;11096;51.338;12.524;2022-11-15T14:57:50;3.55;;;2.17;;
21862;SDS011;11096;51.338;12.524;2022-11-15T15:00:16;3.47;;;2.10;;
21862;SDS011;11096;51.338;12.524;2022-11-15T15:02:42;3.92;;;2.55;;
21862;SDS011;11096;51.338;12.524;2022-11-15T15:05:19;4.18;;;2.33;;
21862;SDS011;11096;51.338;12.524;2022-11-15T15:07:46;4.32;;;2.67;;
21862;SDS011;11096;51.338;12.524;2022-11-15T15:10:13;4.15;;;2.20;;
21862;SDS011;11096;51.338;12.524;2022-11-15T15:12:40;3.45;;;2.17;;
21862;SDS011;11096;51.338;12.524;2022-11-15T15:15:05;2.97;;;2.20;;
21862;SDS011;11096;51.338;12.524;2022-11-15T15:17:37;4.47;;;2.45;;
21862;SDS011;11096;51.338;12.524;2022-11-15T15:20:03;3.95;;;2.35;;
21862;SDS011;11096;51.338;12.524;2022-11-15T15:22:28;2.42;;;2.00;;
21862;SDS011;11096;51.338;12.524;2022-11-15T15:24:55;3.22;;;2.45;;
21862;SDS011;11096;51.338;12.524;2022-11-15T15:27:20;3.80;;;2.28;;
21862;SDS011;11096;51.338;12.524;2022-11-15T15:29:45;3.42;;;2.45;;
21862;SDS011;11096;51.338;12.524;2022-11-15T15:32:11;4.72;;;2.90;;
21862;SDS011;11096;51.338;12.524;2022-11-15T15:34:38;4.00;;;2.63;;
21862;SDS011;11096;51.338;12.524;2022-11-15T15:39:33;4.03;;;3.03;;
21862;SDS011;11096;51.338;12.524;2022-11-15T15:41:58;6.63;;;3.30;;
21862;SDS011;11096;51.338;12.524;2022-11-15T15:44:24;5.65;;;3.05;;
21862;SDS011;11096;51.338;12.524;2022-11-15T15:46:49;5.88;;;3.38;;
21862;SDS011;11096;51.338;12.524;2022-11-15T15:49:15;4.68;;;2.50;;
21862;SDS011;11096;51.338;12.524;2022-11-15T15:51:40;5.50;;;3.42;;
21862;SDS011;11096;51.338;12.524;2022-11-15T15:54:05;5.40;;;3.78;;
21862;SDS011;11096;51.338;12.524;2022-11-15T15:56:31;6.07;;;3.63;;
21862;SDS011;11096;51.338;12.524;2022-11-15T15:58:56;6.45;;;3.45;;
21862;SDS011;11096;51.338;12.524;2022-11-15T16:01:21;6.55;;;3.67;;
21862;SDS011;11096;51.338;12.524;2022-11-15T16:03:47;5.88;;;3.80;;
21862;SDS011;11096;51.338;12.524;2022-11-15T16:08:40;9.30;;;5.05;;
21862;SDS011;11096;51.338;12.524;2022-11-15T16:11:05;11.93;;;6.13;;
21862;SDS011;11096;51.338;12.524;2022-11-15T16:13:32;12.68;;;6.53;;
21862;SDS011;11096;51.338;12.524;2022-11-15T16:15:58;10.52;;;6.13;;
21862;SDS011;11096;51.338;12.524;2022-11-15T16:18:23;12.43;;;6.60;;
21862;SDS011;11096;51.338;12.524;2022-11-15T16:20:49;11.35;;;6.90;;
21862;SDS011;11096;51.338;12.524;2022-11-15T16:23:17;13.63;;;7.13;;
21862;SDS011;11096;51.338;12.524;2022-11-15T16:25:48;12.70;;;7.05;;
21862;SDS011;11096;51.338;12.524;2022-11-15T16:28:17;16.50;;;7.35;;
21862;SDS011;11096;51.338;12.524;2022-11-15T16:30:47;13.88;;;7.65;;
21862;SDS011;11096;51.338;12.524;2022-11-15T16:33:13;14.30;;;8.48;;
21862;SDS011;11096;51.338;12.524;2022-11-15T16:35:39;13.60;;;7.47;;
21862;SDS011;11096;51.338;12.524;2022-11-15T16:38:04;14.75;;;8.18;;
21862;SDS011;11096;51.338;12.524;2022-11-15T16:40:33;17.15;;;8.25;;
21862;SDS011;11096;51.338;12.524;2022-11-15T16:43:00;12.70;;;7.57;;
21862;SDS011;11096;51.338;12.524;2022-11-15T16:45:27;14.25;;;8.35;;
21862;SDS011;11096;51.338;12.524;2022-11-15T16:47:56;16.77;;;9.10;;
21862;SDS011;11096;51.338;12.524;2022-11-15T16:50:22;17.13;;;8.65;;
21862;SDS011;11096;51.338;12.524;2022-11-15T16:52:53;16.02;;;8.63;;
21862;SDS011;11096;51.338;12.524;2022-11-15T16:55:21;15.63;;;8.50;;